sensor_id;sensor_type;location;lat;lon;timestamp;temperature;humidity
18577;DHT22;9418;52.694;13.294;2023-05-14T00:00:22;11.10;67.20
18577;DHT22;9418;52.694;13.294;2023-05-14T00:02:48;11.20;63.30
18577;DHT22;9418;52.694;13.294;2023-05-14T00:05:15;11.20;62.50
18577;DHT22;9418;52.694;13.294;2023-05-14T00:07:43;11.20;60.60
18577;DHT22;9418;52.694;13.294;2023-05-14T00:10:09;11.20;61.30
18577;DHT22;9418;52.694;13.294;2023-05-14T00:12:36;11.30;59.20
18577;DHT22;9418;52.694;13.294;2023-05-14T00:15:03;11.20;55.40
18577;DHT22;9418;52.694;13.294;2023-05-14T00:17:30;11.30;55.10
18577;DHT22;9418;52.694;13.294;2023-05-14T00:19:56;11.30;54.30
18577;DHT22;9418;52.694;13.294;2023-05-14T00:22:23;11.30;48.30
18577;DHT22;9418;52.694;13.294;2023-05-14T00:24:51;11.30;49.60
18577;DHT22;9418;52.694;13.294;2023-05-14T00:27:18;11.30;50.00
18577;DHT22;9418;52.694;13.294;2023-05-14T00:29:44;11.30;47.60
18577;DHT22;9418;52.694;13.294;2023-05-14T00:32:11;11.30;47.10
18577;DHT22;9418;52.694;13.294;2023-05-14T00:34:37;11.20;46.60
18577;DHT22;9418;52.694;13.294;2023-05-14T00:37:04;11.20;42.00
18577;DHT22;9418;52.694;13.294;2023-05-14T00:39:31;11.20;42.00
18577;DHT22;9418;52.694;13.294;2023-05-14T00:41:59;11.30;41.40
18577;DHT22;9418;52.694;13.294;2023-05-14T00:44:25;11.30;42.10
18577;DHT22;9418;52.694;13.294;2023-05-14T00:46:52;11.30;43.00
18577;DHT22;9418;52.694;13.294;2023-05-14T00:49:19;11.30;41.70
18577;DHT22;9418;52.694;13.294;2023-05-14T00:51:46;11.30;42.10
18577;DHT22;9418;52.694;13.294;2023-05-14T00:54:12;11.20;40.80
18577;DHT22;9418;52.694;13.294;2023-05-14T00:56:39;11.20;42.50
18577;DHT22;9418;52.694;13.294;2023-05-14T00:59:07;11.20;39.30
18577;DHT22;9418;52.694;13.294;2023-05-14T01:01:34;11.10;38.80
18577;DHT22;9418;52.694;13.294;2023-05-14T01:04:00;11.00;36.60
18577;DHT22;9418;52.694;13.294;2023-05-14T01:06:33;11.00;35.90
18577;DHT22;9418;52.694;13.294;2023-05-14T01:09:05;10.90;34.20
18577;DHT22;9418;52.694;13.294;2023-05-14T01:11:39;10.90;31.60
18577;DHT22;9418;52.694;13.294;2023-05-14T01:14:20;10.80;84.20
18577;DHT22;9418;52.694;13.294;2023-05-14T01:16:48;10.90;97.40
18577;DHT22;9418;52.694;13.294;2023-05-14T01:19:28;10.80;20.80
18577;DHT22;9418;52.694;13.294;2023-05-14T01:22:00;10.80;90.20
18577;DHT22;9418;52.694;13.294;2023-05-14T01:24:26;10.70;84.20
18577;DHT22;9418;52.694;13.294;2023-05-14T01:26:54;10.60;94.10
18577;DHT22;9418;52.694;13.294;2023-05-14T01:29:25;10.60;99.90
18577;DHT22;9418;52.694;13.294;2023-05-14T01:31:55;10.50;99.90
18577;DHT22;9418;52.694;13.294;2023-05-14T01:34:23;10.40;99.90
18577;DHT22;9418;52.694;13.294;2023-05-14T01:36:52;10.40;99.90
18577;DHT22;9418;52.694;13.294;2023-05-14T01:39:21;10.30;99.90
18577;DHT22;9418;52.694;13.294;2023-05-14T01:41:49;10.20;99.90
18577;DHT22;9418;52.694;13.294;2023-05-14T01:44:17;10.20;99.90
18577;DHT22;9418;52.694;13.294;2023-05-14T01:46:44;10.30;99.90
18577;DHT22;9418;52.694;13.294;2023-05-14T01:49:10;10.20;99.90
18577;DHT22;9418;52.694;13.294;2023-05-14T01:51:37;10.10;99.90
18577;DHT22;9418;52.694;13.294;2023-05-14T01:54:04;10.10;99.90
18577;DHT22;9418;52.694;13.294;2023-05-14T01:56:31;10.00;99.90
18577;DHT22;9418;52.694;13.294;2023-05-14T01:58:58;10.00;99.90
18577;DHT22;9418;52.694;13.294;2023-05-14T02:01:25;9.90;99.90
18577;DHT22;9418;52.694;13.294;2023-05-14T02:03:51;9.80;99.90
18577;DHT22;9418;52.694;13.294;2023-05-14T02:06:18;9.80;99.90
18577;DHT22;9418;52.694;13.294;2023-05-14T02:08:44;9.70;99.90
18577;DHT22;9418;52.694;13.294;2023-05-14T02:11:11;9.70;99.90
18577;DHT22;9418;52.694;13.294;2023-05-14T02:13:39;9.80;99.90
18577;DHT22;9418;52.694;13.294;2023-05-14T02:16:06;9.90;99.90
18577;DHT22;9418;52.694;13.294;2023-05-14T02:18:32;9.80;99.90
18577;DHT22;9418;52.694;13.294;2023-05-14T02:20:59;9.80;99.90
18577;DHT22;9418;52.694;13.294;2023-05-14T02:23:25;9.70;99.90
18577;DHT22;9418;52.694;13.294;2023-05-14T02:25:52;9.70;99.90
18577;DHT22;9418;52.694;13.294;2023-05-14T02:28:18;9.60;99.90
18577;DHT22;9418;52.694;13.294;2023-05-14T02:30:46;9.60;99.90
18577;DHT22;9418;52.694;13.294;2023-05-14T02:33:13;9.60;99.90
18577;DHT22;9418;52.694;13.294;2023-05-14T02:35:39;9.50;99.90
18577;DHT22;9418;52.694;13.294;2023-05-14T02:38:06;9.60;99.90
18577;DHT22;9418;52.694;13.294;2023-05-14T02:40:32;9.60;99.90
18577;DHT22;9418;52.694;13.294;2023-05-14T02:42:59;9.60;99.90
18577;DHT22;9418;52.694;13.294;2023-05-14T02:45:25;9.70;99.90
18577;DHT22;9418;52.694;13.294;2023-05-14T02:47:53;9.70;99.90
18577;DHT22;9418;52.694;13.294;2023-05-14T02:50:20;9.70;99.90
18577;DHT22;9418;52.694;13.294;2023-05-14T02:52:46;9.70;99.90
18577;DHT22;9418;52.694;13.294;2023-05-14T02:55:13;9.80;99.90
18577;DHT22;9418;52.694;13.294;2023-05-14T02:57:39;9.80;99.90
18577;DHT22;9418;52.694;13.294;2023-05-14T03:00:07;9.80;99.90
18577;DHT22;9418;52.694;13.294;2023-05-14T03:02:34;9.90;99.90
18577;DHT22;9418;52.694;13.294;2023-05-14T03:05:02;9.90;99.90
18577;DHT22;9418;52.694;13.294;2023-05-14T03:07:29;10.00;99.90
18577;DHT22;9418;52.694;13.294;2023-05-14T03:09:55;10.10;99.90
18577;DHT22;9418;52.694;13.294;2023-05-14T03:12:24;10.10;99.90
18577;DHT22;9418;52.694;13.294;2023-05-14T03:14:51;10.20;99.90
18577;DHT22;9418;52.694;13.294;2023-05-14T03:17:17;10.20;99.90
18577;DHT22;9418;52.694;13.294;2023-05-14T03:19:44;10.30;99.90
18577;DHT22;9418;52.694;13.294;2023-05-14T03:22:12;10.30;99.90
18577;DHT22;9418;52.694;13.294;2023-05-14T03:24:38;10.20;99.90
18577;DHT22;9418;52.694;13.294;2023-05-14T03:27:05;10.30;99.90
18577;DHT22;9418;52.694;13.294;2023-05-14T03:29:32;10.30;99.90
18577;DHT22;9418;52.694;13.294;2023-05-14T03:31:58;10.30;99.90
18577;DHT22;9418;52.694;13.294;2023-05-14T03:34:25;10.30;99.90
18577;DHT22;9418;52.694;13.294;2023-05-14T03:36:51;10.40;99.90
18577;DHT22;9418;52.694;13.294;2023-05-14T03:39:19;10.40;99.90
18577;DHT22;9418;52.694;13.294;2023-05-14T03:41:46;10.40;99.90
18577;DHT22;9418;52.694;13.294;2023-05-14T03:44:13;10.50;95.00
18577;DHT22;9418;52.694;13.294;2023-05-14T03:46:39;10.60;27.10
18577;DHT22;9418;52.694;13.294;2023-05-14T03:49:06;10.70;41.20
18577;DHT22;9418;52.694;13.294;2023-05-14T03:51:33;10.70;44.50
18577;DHT22;9418;52.694;13.294;2023-05-14T03:54:00;10.80;48.10
18577;DHT22;9418;52.694;13.294;2023-05-14T03:56:27;10.90;49.10
18577;DHT22;9418;52.694;13.294;2023-05-14T03:58:54;10.90;54.20
18577;DHT22;9418;52.694;13.294;2023-05-14T04:01:20;11.00;56.50
18577;DHT22;9418;52.694;13.294;2023-05-14T04:03:47;11.00;60.70
18577;DHT22;9418;52.694;13.294;2023-05-14T04:06:14;11.10;55.90
18577;DHT22;9418;52.694;13.294;2023-05-14T04:08:40;11.10;54.00
18577;DHT22;9418;52.694;13.294;2023-05-14T04:11:07;11.20;56.80
18577;DHT22;9418;52.694;13.294;2023-05-14T04:13:35;11.20;61.40
18577;DHT22;9418;52.694;13.294;2023-05-14T04:16:01;11.20;68.90
18577;DHT22;9418;52.694;13.294;2023-05-14T04:18:28;11.30;63.70
18577;DHT22;9418;52.694;13.294;2023-05-14T04:20:55;11.40;64.60
18577;DHT22;9418;52.694;13.294;2023-05-14T04:23:21;11.50;67.60
18577;DHT22;9418;52.694;13.294;2023-05-14T04:25:48;11.60;69.80
18577;DHT22;9418;52.694;13.294;2023-05-14T04:28:14;11.70;74.90
18577;DHT22;9418;52.694;13.294;2023-05-14T04:30:42;11.70;77.80
18577;DHT22;9418;52.694;13.294;2023-05-14T04:33:10;11.80;75.00
18577;DHT22;9418;52.694;13.294;2023-05-14T04:35:36;11.90;80.00
18577;DHT22;9418;52.694;13.294;2023-05-14T04:38:03;12.00;76.20
18577;DHT22;9418;52.694;13.294;2023-05-14T04:40:30;12.10;79.10
18577;DHT22;9418;52.694;13.294;2023-05-14T04:42:57;12.20;81.00
18577;DHT22;9418;52.694;13.294;2023-05-14T04:45:23;12.20;80.70
18577;DHT22;9418;52.694;13.294;2023-05-14T04:47:52;12.30;79.50
18577;DHT22;9418;52.694;13.294;2023-05-14T04:50:18;12.40;78.00
18577;DHT22;9418;52.694;13.294;2023-05-14T04:52:45;12.50;80.10
18577;DHT22;9418;52.694;13.294;2023-05-14T04:55:12;12.60;81.10
18577;DHT22;9418;52.694;13.294;2023-05-14T04:57:38;12.70;86.50
18577;DHT22;9418;52.694;13.294;2023-05-14T05:00:06;12.90;99.90
18577;DHT22;9418;52.694;13.294;2023-05-14T05:02:34;13.00;99.90
18577;DHT22;9418;52.694;13.294;2023-05-14T05:05:02;13.20;99.90
18577;DHT22;9418;52.694;13.294;2023-05-14T05:07:29;13.30;99.90
18577;DHT22;9418;52.694;13.294;2023-05-14T05:09:55;13.40;99.90
18577;DHT22;9418;52.694;13.294;2023-05-14T05:12:22;13.50;99.90
18577;DHT22;9418;52.694;13.294;2023-05-14T05:14:48;13.50;99.90
18577;DHT22;9418;52.694;13.294;2023-05-14T05:17:15;13.70;99.90
18577;DHT22;9418;52.694;13.294;2023-05-14T05:19:41;13.80;99.90
18577;DHT22;9418;52.694;13.294;2023-05-14T05:22:09;13.90;99.90
18577;DHT22;9418;52.694;13.294;2023-05-14T05:24:36;14.00;99.90
18577;DHT22;9418;52.694;13.294;2023-05-14T05:27:03;14.10;25.80
18577;DHT22;9418;52.694;13.294;2023-05-14T05:29:30;14.20;42.40
18577;DHT22;9418;52.694;13.294;2023-05-14T05:31:57;14.30;66.40
18577;DHT22;9418;52.694;13.294;2023-05-14T05:34:23;14.30;68.80
18577;DHT22;9418;52.694;13.294;2023-05-14T05:36:50;14.40;83.70
18577;DHT22;9418;52.694;13.294;2023-05-14T05:39:18;14.50;99.90
18577;DHT22;9418;52.694;13.294;2023-05-14T05:41:44;14.60;99.90
18577;DHT22;9418;52.694;13.294;2023-05-14T05:44:11;14.70;99.90
18577;DHT22;9418;52.694;13.294;2023-05-14T05:46:38;14.80;99.90
18577;DHT22;9418;52.694;13.294;2023-05-14T05:49:04;14.90;99.90
18577;DHT22;9418;52.694;13.294;2023-05-14T05:51:31;14.90;99.90
18577;DHT22;9418;52.694;13.294;2023-05-14T05:53:57;14.90;99.90
18577;DHT22;9418;52.694;13.294;2023-05-14T05:56:25;15.10;99.90
18577;DHT22;9418;52.694;13.294;2023-05-14T05:58:52;15.10;99.90
18577;DHT22;9418;52.694;13.294;2023-05-14T06:01:18;15.20;99.90
18577;DHT22;9418;52.694;13.294;2023-05-14T06:03:45;15.30;99.90
18577;DHT22;9418;52.694;13.294;2023-05-14T06:06:11;15.40;99.90
18577;DHT22;9418;52.694;13.294;2023-05-14T06:08:38;15.50;99.90
18577;DHT22;9418;52.694;13.294;2023-05-14T06:11:04;15.60;99.90
18577;DHT22;9418;52.694;13.294;2023-05-14T06:13:32;15.70;99.90
18577;DHT22;9418;52.694;13.294;2023-05-14T06:15:59;15.80;99.90
18577;DHT22;9418;52.694;13.294;2023-05-14T06:18:25;15.80;99.90
18577;DHT22;9418;52.694;13.294;2023-05-14T06:20:52;15.80;99.90
18577;DHT22;9418;52.694;13.294;2023-05-14T06:23:21;15.90;99.90
18577;DHT22;9418;52.694;13.294;2023-05-14T06:25:48;15.90;99.90
18577;DHT22;9418;52.694;13.294;2023-05-14T06:28:15;16.00;99.90
18577;DHT22;9418;52.694;13.294;2023-05-14T06:30:43;16.10;99.90
18577;DHT22;9418;52.694;13.294;2023-05-14T06:33:10;16.20;99.90
18577;DHT22;9418;52.694;13.294;2023-05-14T06:35:37;16.20;99.90
18577;DHT22;9418;52.694;13.294;2023-05-14T06:38:04;16.30;99.90
18577;DHT22;9418;52.694;13.294;2023-05-14T06:40:31;16.20;99.90
18577;DHT22;9418;52.694;13.294;2023-05-14T06:42:57;16.30;99.90
18577;DHT22;9418;52.694;13.294;2023-05-14T06:45:24;16.30;99.90
18577;DHT22;9418;52.694;13.294;2023-05-14T06:47:52;16.30;99.90
18577;DHT22;9418;52.694;13.294;2023-05-14T06:50:18;16.20;99.90
18577;DHT22;9418;52.694;13.294;2023-05-14T06:52:45;16.20;99.90
18577;DHT22;9418;52.694;13.294;2023-05-14T06:55:11;16.20;99.90
18577;DHT22;9418;52.694;13.294;2023-05-14T06:57:38;16.20;99.90
18577;DHT22;9418;52.694;13.294;2023-05-14T07:00:06;16.10;99.90
18577;DHT22;9418;52.694;13.294;2023-05-14T07:02:32;16.10;99.90
18577;DHT22;9418;52.694;13.294;2023-05-14T07:05:01;16.10;99.90
18577;DHT22;9418;52.694;13.294;2023-05-14T07:07:27;16.20;99.90
18577;DHT22;9418;52.694;13.294;2023-05-14T07:09:54;16.20;99.90
18577;DHT22;9418;52.694;13.294;2023-05-14T07:12:20;16.30;99.90
18577;DHT22;9418;52.694;13.294;2023-05-14T07:14:47;16.30;99.90
18577;DHT22;9418;52.694;13.294;2023-05-14T07:17:14;16.30;99.90
18577;DHT22;9418;52.694;13.294;2023-05-14T07:19:40;16.30;99.90
18577;DHT22;9418;52.694;13.294;2023-05-14T07:22:08;16.40;99.90
18577;DHT22;9418;52.694;13.294;2023-05-14T07:24:35;16.30;99.90
18577;DHT22;9418;52.694;13.294;2023-05-14T07:27:02;16.40;99.90
18577;DHT22;9418;52.694;13.294;2023-05-14T07:29:28;16.50;99.90
18577;DHT22;9418;52.694;13.294;2023-05-14T07:31:55;16.50;99.90
18577;DHT22;9418;52.694;13.294;2023-05-14T07:34:22;16.50;99.90
18577;DHT22;9418;52.694;13.294;2023-05-14T07:36:49;16.50;99.90
18577;DHT22;9418;52.694;13.294;2023-05-14T07:39:17;16.50;99.90
18577;DHT22;9418;52.694;13.294;2023-05-14T07:41:43;16.50;99.90
18577;DHT22;9418;52.694;13.294;2023-05-14T07:44:10;16.60;99.90
18577;DHT22;9418;52.694;13.294;2023-05-14T07:46:36;16.60;99.90
18577;DHT22;9418;52.694;13.294;2023-05-14T07:49:03;16.60;99.90
18577;DHT22;9418;52.694;13.294;2023-05-14T07:51:29;16.60;99.90
18577;DHT22;9418;52.694;13.294;2023-05-14T07:53:57;16.50;99.90
18577;DHT22;9418;52.694;13.294;2023-05-14T07:56:26;16.60;99.90
18577;DHT22;9418;52.694;13.294;2023-05-14T07:58:52;16.70;99.90
18577;DHT22;9418;52.694;13.294;2023-05-14T08:01:19;16.80;99.90
18577;DHT22;9418;52.694;13.294;2023-05-14T08:03:46;16.90;99.90
18577;DHT22;9418;52.694;13.294;2023-05-14T08:06:12;17.00;99.90
18577;DHT22;9418;52.694;13.294;2023-05-14T08:08:39;17.00;99.90
18577;DHT22;9418;52.694;13.294;2023-05-14T08:11:05;16.90;99.90
18577;DHT22;9418;52.694;13.294;2023-05-14T08:13:33;16.90;99.90
18577;DHT22;9418;52.694;13.294;2023-05-14T08:16:00;16.90;99.90
18577;DHT22;9418;52.694;13.294;2023-05-14T08:18:27;16.90;99.90
18577;DHT22;9418;52.694;13.294;2023-05-14T08:20:53;17.00;99.90
18577;DHT22;9418;52.694;13.294;2023-05-14T08:23:21;17.00;99.90
18577;DHT22;9418;52.694;13.294;2023-05-14T08:25:47;17.10;99.90
18577;DHT22;9418;52.694;13.294;2023-05-14T08:28:14;17.10;99.90
18577;DHT22;9418;52.694;13.294;2023-05-14T08:30:42;17.20;99.90
18577;DHT22;9418;52.694;13.294;2023-05-14T08:33:09;17.10;99.90
18577;DHT22;9418;52.694;13.294;2023-05-14T08:35:35;17.20;99.90
18577;DHT22;9418;52.694;13.294;2023-05-14T08:38:02;17.30;99.90
18577;DHT22;9418;52.694;13.294;2023-05-14T08:40:29;17.40;99.90
18577;DHT22;9418;52.694;13.294;2023-05-14T08:42:56;17.40;99.90
18577;DHT22;9418;52.694;13.294;2023-05-14T08:45:28;17.60;99.90
18577;DHT22;9418;52.694;13.294;2023-05-14T08:47:57;17.80;99.90
18577;DHT22;9418;52.694;13.294;2023-05-14T08:50:25;17.90;99.90
18577;DHT22;9418;52.694;13.294;2023-05-14T08:52:54;18.10;99.90
18577;DHT22;9418;52.694;13.294;2023-05-14T08:55:21;18.20;99.90
18577;DHT22;9418;52.694;13.294;2023-05-14T08:57:48;18.40;99.90
18577;DHT22;9418;52.694;13.294;2023-05-14T09:00:14;18.30;99.90
18577;DHT22;9418;52.694;13.294;2023-05-14T09:02:43;18.40;99.90
18577;DHT22;9418;52.694;13.294;2023-05-14T09:05:11;18.50;99.90
18577;DHT22;9418;52.694;13.294;2023-05-14T09:07:38;18.60;99.90
18577;DHT22;9418;52.694;13.294;2023-05-14T09:10:05;18.80;99.90
18577;DHT22;9418;52.694;13.294;2023-05-14T09:12:33;18.90;99.90
18577;DHT22;9418;52.694;13.294;2023-05-14T09:14:59;19.00;99.90
18577;DHT22;9418;52.694;13.294;2023-05-14T09:17:26;18.80;99.90
18577;DHT22;9418;52.694;13.294;2023-05-14T09:19:53;18.80;99.90
18577;DHT22;9418;52.694;13.294;2023-05-14T09:22:21;19.00;99.90
18577;DHT22;9418;52.694;13.294;2023-05-14T09:25:01;19.20;99.90
18577;DHT22;9418;52.694;13.294;2023-05-14T09:27:29;19.40;99.90
18577;DHT22;9418;52.694;13.294;2023-05-14T09:30:04;19.60;99.90
18577;DHT22;9418;52.694;13.294;2023-05-14T09:32:35;19.60;99.90
18577;DHT22;9418;52.694;13.294;2023-05-14T09:35:09;19.80;99.90
18577;DHT22;9418;52.694;13.294;2023-05-14T09:37:38;20.00;99.90
18577;DHT22;9418;52.694;13.294;2023-05-14T09:40:07;20.00;99.90
18577;DHT22;9418;52.694;13.294;2023-05-14T09:42:34;20.20;99.90
18577;DHT22;9418;52.694;13.294;2023-05-14T09:45:00;20.40;99.90
18577;DHT22;9418;52.694;13.294;2023-05-14T09:47:29;20.70;99.90
18577;DHT22;9418;52.694;13.294;2023-05-14T09:49:55;20.80;99.90
18577;DHT22;9418;52.694;13.294;2023-05-14T09:52:23;20.80;99.90
18577;DHT22;9418;52.694;13.294;2023-05-14T09:54:51;20.90;99.90
18577;DHT22;9418;52.694;13.294;2023-05-14T09:57:18;21.30;99.90
18577;DHT22;9418;52.694;13.294;2023-05-14T09:59:45;21.70;99.90
18577;DHT22;9418;52.694;13.294;2023-05-14T10:02:18;22.10;99.90
18577;DHT22;9418;52.694;13.294;2023-05-14T10:04:47;21.60;99.90
18577;DHT22;9418;52.694;13.294;2023-05-14T10:07:17;21.30;99.90
18577;DHT22;9418;52.694;13.294;2023-05-14T10:09:45;21.90;99.90
18577;DHT22;9418;52.694;13.294;2023-05-14T10:12:15;22.50;99.90
18577;DHT22;9418;52.694;13.294;2023-05-14T10:14:47;22.90;99.90
18577;DHT22;9418;52.694;13.294;2023-05-14T10:17:18;23.40;99.90
18577;DHT22;9418;52.694;13.294;2023-05-14T10:19:49;23.60;99.90
18577;DHT22;9418;52.694;13.294;2023-05-14T10:22:21;23.80;99.90
18577;DHT22;9418;52.694;13.294;2023-05-14T10:24:48;23.60;99.90
18577;DHT22;9418;52.694;13.294;2023-05-14T10:27:19;24.10;99.90
18577;DHT22;9418;52.694;13.294;2023-05-14T10:29:50;24.60;99.90
18577;DHT22;9418;52.694;13.294;2023-05-14T10:32:19;24.60;99.90
18577;DHT22;9418;52.694;13.294;2023-05-14T10:34:46;25.30;99.90
18577;DHT22;9418;52.694;13.294;2023-05-14T10:37:14;24.70;99.90
18577;DHT22;9418;52.694;13.294;2023-05-14T10:39:42;24.30;99.90
18577;DHT22;9418;52.694;13.294;2023-05-14T10:42:10;23.80;99.90
18577;DHT22;9418;52.694;13.294;2023-05-14T10:44:45;23.00;99.90
18577;DHT22;9418;52.694;13.294;2023-05-14T10:47:13;22.10;99.90
18577;DHT22;9418;52.694;13.294;2023-05-14T10:49:40;21.70;99.90
18577;DHT22;9418;52.694;13.294;2023-05-14T10:52:08;21.70;99.90
18577;DHT22;9418;52.694;13.294;2023-05-14T10:54:35;21.50;99.90
18577;DHT22;9418;52.694;13.294;2023-05-14T10:57:02;21.50;99.90
18577;DHT22;9418;52.694;13.294;2023-05-14T10:59:28;21.40;99.90
18577;DHT22;9418;52.694;13.294;2023-05-14T11:01:57;21.20;99.90
18577;DHT22;9418;52.694;13.294;2023-05-14T11:04:23;21.20;99.90
18577;DHT22;9418;52.694;13.294;2023-05-14T11:06:52;21.10;99.90
18577;DHT22;9418;52.694;13.294;2023-05-14T11:09:20;21.10;99.90
18577;DHT22;9418;52.694;13.294;2023-05-14T11:11:46;20.90;99.90
18577;DHT22;9418;52.694;13.294;2023-05-14T11:14:13;20.90;99.90
18577;DHT22;9418;52.694;13.294;2023-05-14T11:16:40;20.80;99.90
18577;DHT22;9418;52.694;13.294;2023-05-14T11:19:08;20.80;99.90
18577;DHT22;9418;52.694;13.294;2023-05-14T11:21:34;20.70;99.90
18577;DHT22;9418;52.694;13.294;2023-05-14T11:24:01;20.60;99.90
18577;DHT22;9418;52.694;13.294;2023-05-14T11:26:30;20.50;99.90
18577;DHT22;9418;52.694;13.294;2023-05-14T11:28:57;20.50;99.90
18577;DHT22;9418;52.694;13.294;2023-05-14T11:31:24;20.40;99.90
18577;DHT22;9418;52.694;13.294;2023-05-14T11:33:51;20.40;99.90
18577;DHT22;9418;52.694;13.294;2023-05-14T11:36:20;20.40;99.90
18577;DHT22;9418;52.694;13.294;2023-05-14T11:38:47;20.40;99.90
18577;DHT22;9418;52.694;13.294;2023-05-14T11:41:15;20.30;99.90
18577;DHT22;9418;52.694;13.294;2023-05-14T11:43:42;20.50;99.90
18577;DHT22;9418;52.694;13.294;2023-05-14T11:46:15;20.50;99.90
18577;DHT22;9418;52.694;13.294;2023-05-14T11:48:42;20.60;99.90
18577;DHT22;9418;52.694;13.294;2023-05-14T11:51:10;20.70;99.90
18577;DHT22;9418;52.694;13.294;2023-05-14T11:53:37;20.90;99.90
18577;DHT22;9418;52.694;13.294;2023-05-14T11:56:04;20.90;99.90
18577;DHT22;9418;52.694;13.294;2023-05-14T11:58:31;20.80;99.90
18577;DHT22;9418;52.694;13.294;2023-05-14T12:00:58;20.80;99.90
18577;DHT22;9418;52.694;13.294;2023-05-14T12:03:25;20.90;99.90
18577;DHT22;9418;52.694;13.294;2023-05-14T12:05:55;21.00;99.90
18577;DHT22;9418;52.694;13.294;2023-05-14T12:08:22;20.90;99.90
18577;DHT22;9418;52.694;13.294;2023-05-14T12:10:53;21.00;99.90
18577;DHT22;9418;52.694;13.294;2023-05-14T12:13:19;20.90;99.90
18577;DHT22;9418;52.694;13.294;2023-05-14T12:15:47;20.90;99.90
18577;DHT22;9418;52.694;13.294;2023-05-14T12:18:13;20.70;99.90
18577;DHT22;9418;52.694;13.294;2023-05-14T12:20:46;20.60;99.90
18577;DHT22;9418;52.694;13.294;2023-05-14T12:23:12;20.50;99.90
18577;DHT22;9418;52.694;13.294;2023-05-14T12:25:39;20.20;99.90
18577;DHT22;9418;52.694;13.294;2023-05-14T12:28:14;20.10;99.90
18577;DHT22;9418;52.694;13.294;2023-05-14T12:30:40;20.10;99.90
18577;DHT22;9418;52.694;13.294;2023-05-14T12:33:07;19.90;99.90
18577;DHT22;9418;52.694;13.294;2023-05-14T12:35:34;19.80;99.90
18577;DHT22;9418;52.694;13.294;2023-05-14T12:38:01;19.70;99.90
18577;DHT22;9418;52.694;13.294;2023-05-14T12:40:28;19.60;99.90
18577;DHT22;9418;52.694;13.294;2023-05-14T12:42:54;19.50;99.90
18577;DHT22;9418;52.694;13.294;2023-05-14T12:45:22;19.40;99.90
18577;DHT22;9418;52.694;13.294;2023-05-14T12:47:49;19.30;99.90
18577;DHT22;9418;52.694;13.294;2023-05-14T12:50:15;19.40;99.90
18577;DHT22;9418;52.694;13.294;2023-05-14T12:52:42;19.50;99.90
18577;DHT22;9418;52.694;13.294;2023-05-14T12:55:09;19.70;99.90
18577;DHT22;9418;52.694;13.294;2023-05-14T12:57:35;19.90;99.90
18577;DHT22;9418;52.694;13.294;2023-05-14T13:00:04;20.00;99.90
18577;DHT22;9418;52.694;13.294;2023-05-14T13:02:33;20.00;99.90
18577;DHT22;9418;52.694;13.294;2023-05-14T13:05:00;20.00;99.90
18577;DHT22;9418;52.694;13.294;2023-05-14T13:07:27;19.90;99.90
18577;DHT22;9418;52.694;13.294;2023-05-14T13:09:54;19.90;99.90
18577;DHT22;9418;52.694;13.294;2023-05-14T13:12:21;19.90;99.90
18577;DHT22;9418;52.694;13.294;2023-05-14T13:14:48;20.00;99.90
18577;DHT22;9418;52.694;13.294;2023-05-14T13:17:15;20.00;99.90
18577;DHT22;9418;52.694;13.294;2023-05-14T13:19:42;20.00;99.90
18577;DHT22;9418;52.694;13.294;2023-05-14T13:22:09;20.00;99.90
18577;DHT22;9418;52.694;13.294;2023-05-14T13:24:35;20.10;99.90
18577;DHT22;9418;52.694;13.294;2023-05-14T13:27:02;20.20;99.90
18577;DHT22;9418;52.694;13.294;2023-05-14T13:29:29;20.30;99.90
18577;DHT22;9418;52.694;13.294;2023-05-14T13:31:56;20.50;99.90
18577;DHT22;9418;52.694;13.294;2023-05-14T13:34:22;20.50;99.90
18577;DHT22;9418;52.694;13.294;2023-05-14T13:36:50;20.40;99.90
18577;DHT22;9418;52.694;13.294;2023-05-14T13:39:17;20.50;99.90
18577;DHT22;9418;52.694;13.294;2023-05-14T13:41:47;20.50;99.90
18577;DHT22;9418;52.694;13.294;2023-05-14T13:44:15;20.40;99.90
18577;DHT22;9418;52.694;13.294;2023-05-14T13:46:41;20.30;99.90
18577;DHT22;9418;52.694;13.294;2023-05-14T13:49:08;20.40;99.90
18577;DHT22;9418;52.694;13.294;2023-05-14T13:51:35;20.40;99.90
18577;DHT22;9418;52.694;13.294;2023-05-14T13:54:03;20.50;99.90
18577;DHT22;9418;52.694;13.294;2023-05-14T13:56:29;20.80;99.90
18577;DHT22;9418;52.694;13.294;2023-05-14T13:58:56;21.40;99.90
18577;DHT22;9418;52.694;13.294;2023-05-14T14:01:23;21.90;99.90
18577;DHT22;9418;52.694;13.294;2023-05-14T14:03:49;22.20;99.90
18577;DHT22;9418;52.694;13.294;2023-05-14T14:06:16;22.30;99.90
18577;DHT22;9418;52.694;13.294;2023-05-14T14:08:43;21.80;99.90
18577;DHT22;9418;52.694;13.294;2023-05-14T14:11:10;22.50;99.90
18577;DHT22;9418;52.694;13.294;2023-05-14T14:13:38;23.00;99.90
18577;DHT22;9418;52.694;13.294;2023-05-14T14:16:05;22.30;99.90
18577;DHT22;9418;52.694;13.294;2023-05-14T14:18:32;21.80;99.90
18577;DHT22;9418;52.694;13.294;2023-05-14T14:20:59;21.20;99.90
18577;DHT22;9418;52.694;13.294;2023-05-14T14:23:25;21.20;99.90
18577;DHT22;9418;52.694;13.294;2023-05-14T14:25:52;20.90;99.90
18577;DHT22;9418;52.694;13.294;2023-05-14T14:28:20;20.90;99.90
18577;DHT22;9418;52.694;13.294;2023-05-14T14:30:46;20.80;99.90
18577;DHT22;9418;52.694;13.294;2023-05-14T14:33:13;20.80;99.90
18577;DHT22;9418;52.694;13.294;2023-05-14T14:35:39;20.70;99.90
18577;DHT22;9418;52.694;13.294;2023-05-14T14:38:06;20.60;99.90
18577;DHT22;9418;52.694;13.294;2023-05-14T14:40:33;20.60;99.90
18577;DHT22;9418;52.694;13.294;2023-05-14T14:42:59;20.60;99.90
18577;DHT22;9418;52.694;13.294;2023-05-14T14:45:27;20.50;99.90
18577;DHT22;9418;52.694;13.294;2023-05-14T14:48:21;20.40;99.90
18577;DHT22;9418;52.694;13.294;2023-05-14T14:50:48;20.40;99.90
18577;DHT22;9418;52.694;13.294;2023-05-14T14:53:16;20.40;99.90
18577;DHT22;9418;52.694;13.294;2023-05-14T14:55:42;20.50;99.90
18577;DHT22;9418;52.694;13.294;2023-05-14T14:58:09;20.60;99.90
18577;DHT22;9418;52.694;13.294;2023-05-14T15:00:37;20.80;99.90
18577;DHT22;9418;52.694;13.294;2023-05-14T15:03:04;20.80;99.90
18577;DHT22;9418;52.694;13.294;2023-05-14T15:05:31;20.80;99.90
18577;DHT22;9418;52.694;13.294;2023-05-14T15:07:57;20.80;99.90
18577;DHT22;9418;52.694;13.294;2023-05-14T15:10:26;20.60;99.90
18577;DHT22;9418;52.694;13.294;2023-05-14T15:12:53;20.60;99.90
18577;DHT22;9418;52.694;13.294;2023-05-14T15:15:19;20.40;99.90
18577;DHT22;9418;52.694;13.294;2023-05-14T15:17:47;20.40;99.90
18577;DHT22;9418;52.694;13.294;2023-05-14T15:20:14;20.40;99.90
18577;DHT22;9418;52.694;13.294;2023-05-14T15:22:43;20.40;99.90
18577;DHT22;9418;52.694;13.294;2023-05-14T15:25:10;20.40;99.90
18577;DHT22;9418;52.694;13.294;2023-05-14T15:27:37;20.30;99.90
18577;DHT22;9418;52.694;13.294;2023-05-14T15:30:04;20.00;99.90
18577;DHT22;9418;52.694;13.294;2023-05-14T15:32:31;20.00;99.90